sensor_id;sensor_type;location;lat;lon;timestamp;temperature;humidity
33739;DHT22;20063;51.730;11.110;2024-01-30T00:01:48;8.40;99.90
33739;DHT22;20063;51.730;11.110;2024-01-30T00:04:14;8.30;99.90
33739;DHT22;20063;51.730;11.110;2024-01-30T00:06:43;8.30;99.90
33739;DHT22;20063;51.730;11.110;2024-01-30T00:09:09;8.20;99.90
33739;DHT22;20063;51.730;11.110;2024-01-30T00:11:36;8.10;99.90
33739;DHT22;20063;51.730;11.110;2024-01-30T00:14:02;8.10;99.90
33739;DHT22;20063;51.730;11.110;2024-01-30T00:16:28;8.00;99.90
33739;DHT22;20063;51.730;11.110;2024-01-30T00:18:54;8.00;99.90
33739;DHT22;20063;51.730;11.110;2024-01-30T00:21:20;7.90;99.90
33739;DHT22;20063;51.730;11.110;2024-01-30T00:23:46;7.80;99.90
33739;DHT22;20063;51.730;11.110;2024-01-30T00:26:12;7.80;99.90
33739;DHT22;20063;51.730;11.110;2024-01-30T00:28:38;7.80;99.90
33739;DHT22;20063;51.730;11.110;2024-01-30T00:31:04;7.70;99.90
33739;DHT22;20063;51.730;11.110;2024-01-30T00:33:32;7.70;99.90
33739;DHT22;20063;51.730;11.110;2024-01-30T00:35:58;7.70;99.90
33739;DHT22;20063;51.730;11.110;2024-01-30T00:38:24;7.70;99.90
33739;DHT22;20063;51.730;11.110;2024-01-30T00:40:49;7.60;99.90
33739;DHT22;20063;51.730;11.110;2024-01-30T00:43:15;7.60;99.90
33739;DHT22;20063;51.730;11.110;2024-01-30T00:45:43;7.60;99.90
33739;DHT22;20063;51.730;11.110;2024-01-30T00:48:09;7.60;99.90
33739;DHT22;20063;51.730;11.110;2024-01-30T00:50:34;7.70;99.90
33739;DHT22;20063;51.730;11.110;2024-01-30T00:53:00;7.70;99.90
33739;DHT22;20063;51.730;11.110;2024-01-30T00:55:26;7.70;99.90
33739;DHT22;20063;51.730;11.110;2024-01-30T00:57:51;7.80;99.90
33739;DHT22;20063;51.730;11.110;2024-01-30T01:00:17;7.90;99.90
33739;DHT22;20063;51.730;11.110;2024-01-30T01:02:43;7.90;99.90
33739;DHT22;20063;51.730;11.110;2024-01-30T01:05:09;8.00;99.90
33739;DHT22;20063;51.730;11.110;2024-01-30T01:07:35;8.10;99.90
33739;DHT22;20063;51.730;11.110;2024-01-30T01:10:01;8.30;99.90
33739;DHT22;20063;51.730;11.110;2024-01-30T01:12:27;8.50;99.90
33739;DHT22;20063;51.730;11.110;2024-01-30T01:14:53;8.70;99.90
33739;DHT22;20063;51.730;11.110;2024-01-30T01:17:19;8.80;99.90
33739;DHT22;20063;51.730;11.110;2024-01-30T01:19:44;8.80;99.90
33739;DHT22;20063;51.730;11.110;2024-01-30T01:22:10;8.80;99.90
33739;DHT22;20063;51.730;11.110;2024-01-30T01:24:36;8.80;99.90
33739;DHT22;20063;51.730;11.110;2024-01-30T01:27:02;8.70;99.90
33739;DHT22;20063;51.730;11.110;2024-01-30T01:29:28;8.60;99.90
33739;DHT22;20063;51.730;11.110;2024-01-30T01:31:57;8.50;99.90
33739;DHT22;20063;51.730;11.110;2024-01-30T01:34:23;8.40;99.90
33739;DHT22;20063;51.730;11.110;2024-01-30T01:36:54;8.40;99.90
33739;DHT22;20063;51.730;11.110;2024-01-30T01:39:22;8.30;99.90
33739;DHT22;20063;51.730;11.110;2024-01-30T01:41:49;8.30;99.90
33739;DHT22;20063;51.730;11.110;2024-01-30T01:44:14;8.30;99.90
33739;DHT22;20063;51.730;11.110;2024-01-30T01:46:40;8.30;99.90
33739;DHT22;20063;51.730;11.110;2024-01-30T01:49:07;8.30;99.90
33739;DHT22;20063;51.730;11.110;2024-01-30T01:51:34;8.20;99.90
33739;DHT22;20063;51.730;11.110;2024-01-30T01:54:04;8.20;99.90
33739;DHT22;20063;51.730;11.110;2024-01-30T01:56:31;8.20;99.90
33739;DHT22;20063;51.730;11.110;2024-01-30T01:59:04;8.10;99.90
33739;DHT22;20063;51.730;11.110;2024-01-30T02:01:31;8.00;99.90
33739;DHT22;20063;51.730;11.110;2024-01-30T02:03:59;7.90;99.90
33739;DHT22;20063;51.730;11.110;2024-01-30T02:06:26;7.80;99.90
33739;DHT22;20063;51.730;11.110;2024-01-30T02:08:51;7.80;99.90
33739;DHT22;20063;51.730;11.110;2024-01-30T02:11:17;7.70;99.90
33739;DHT22;20063;51.730;11.110;2024-01-30T02:16:56;7.60;99.90
33739;DHT22;20063;51.730;11.110;2024-01-30T02:19:22;7.50;99.90
33739;DHT22;20063;51.730;11.110;2024-01-30T02:21:47;7.40;99.90
33739;DHT22;20063;51.730;11.110;2024-01-30T02:24:13;7.30;99.90
33739;DHT22;20063;51.730;11.110;2024-01-30T02:26:39;7.20;99.90
33739;DHT22;20063;51.730;11.110;2024-01-30T02:29:04;7.10;99.90
33739;DHT22;20063;51.730;11.110;2024-01-30T02:31:30;7.20;99.90
33739;DHT22;20063;51.730;11.110;2024-01-30T02:33:55;7.20;99.90
33739;DHT22;20063;51.730;11.110;2024-01-30T02:36:21;7.20;99.90
33739;DHT22;20063;51.730;11.110;2024-01-30T02:38:46;7.20;99.90
33739;DHT22;20063;51.730;11.110;2024-01-30T02:41:12;7.30;99.90
33739;DHT22;20063;51.730;11.110;2024-01-30T02:43:37;7.40;99.90
33739;DHT22;20063;51.730;11.110;2024-01-30T02:46:04;7.60;99.90
33739;DHT22;20063;51.730;11.110;2024-01-30T02:48:29;7.90;99.90
33739;DHT22;20063;51.730;11.110;2024-01-30T02:50:55;8.20;99.90
33739;DHT22;20063;51.730;11.110;2024-01-30T02:53:20;8.40;99.90
33739;DHT22;20063;51.730;11.110;2024-01-30T02:55:46;8.50;99.90
33739;DHT22;20063;51.730;11.110;2024-01-30T02:58:12;8.70;99.90
33739;DHT22;20063;51.730;11.110;2024-01-30T03:00:37;8.80;99.90
33739;DHT22;20063;51.730;11.110;2024-01-30T03:03:06;8.90;99.90
33739;DHT22;20063;51.730;11.110;2024-01-30T03:05:31;8.90;99.90
33739;DHT22;20063;51.730;11.110;2024-01-30T03:07:57;8.90;99.90
33739;DHT22;20063;51.730;11.110;2024-01-30T03:10:23;8.90;99.90
33739;DHT22;20063;51.730;11.110;2024-01-30T03:12:48;8.80;99.90
33739;DHT22;20063;51.730;11.110;2024-01-30T03:15:14;8.60;99.90
33739;DHT22;20063;51.730;11.110;2024-01-30T03:17:40;8.50;99.90
33739;DHT22;20063;51.730;11.110;2024-01-30T03:20:07;8.40;99.90
33739;DHT22;20063;51.730;11.110;2024-01-30T03:22:32;8.30;99.90
33739;DHT22;20063;51.730;11.110;2024-01-30T03:24:58;8.20;99.90
33739;DHT22;20063;51.730;11.110;2024-01-30T03:27:23;8.30;99.90
33739;DHT22;20063;51.730;11.110;2024-01-30T03:29:49;8.20;99.90
33739;DHT22;20063;51.730;11.110;2024-01-30T03:32:15;8.20;99.90
33739;DHT22;20063;51.730;11.110;2024-01-30T03:34:40;8.30;99.90
33739;DHT22;20063;51.730;11.110;2024-01-30T03:37:06;8.20;99.90
33739;DHT22;20063;51.730;11.110;2024-01-30T03:39:31;8.20;99.90
33739;DHT22;20063;51.730;11.110;2024-01-30T03:41:57;8.10;99.90
33739;DHT22;20063;51.730;11.110;2024-01-30T03:44:22;8.00;99.90
33739;DHT22;20063;51.730;11.110;2024-01-30T03:46:48;8.00;99.90
33739;DHT22;20063;51.730;11.110;2024-01-30T03:49:14;7.90;99.90
33739;DHT22;20063;51.730;11.110;2024-01-30T03:51:39;7.80;99.90
33739;DHT22;20063;51.730;11.110;2024-01-30T03:54:05;7.80;99.90
33739;DHT22;20063;51.730;11.110;2024-01-30T03:56:30;7.70;99.90
33739;DHT22;20063;51.730;11.110;2024-01-30T03:58:56;7.70;99.90
33739;DHT22;20063;51.730;11.110;2024-01-30T04:01:22;7.70;99.90
33739;DHT22;20063;51.730;11.110;2024-01-30T04:03:47;7.70;99.90
33739;DHT22;20063;51.730;11.110;2024-01-30T04:06:13;7.60;99.90
33739;DHT22;20063;51.730;11.110;2024-01-30T04:08:39;7.60;99.90
33739;DHT22;20063;51.730;11.110;2024-01-30T04:11:05;7.60;99.90
33739;DHT22;20063;51.730;11.110;2024-01-30T04:13:31;7.50;99.90
33739;DHT22;20063;51.730;11.110;2024-01-30T04:16:02;7.40;99.90
33739;DHT22;20063;51.730;11.110;2024-01-30T04:18:29;7.40;99.90
33739;DHT22;20063;51.730;11.110;2024-01-30T04:20:55;7.30;99.90
33739;DHT22;20063;51.730;11.110;2024-01-30T04:23:22;7.30;99.90
33739;DHT22;20063;51.730;11.110;2024-01-30T04:25:47;7.20;99.90
33739;DHT22;20063;51.730;11.110;2024-01-30T04:28:13;7.20;99.90
33739;DHT22;20063;51.730;11.110;2024-01-30T04:30:39;7.20;99.90
33739;DHT22;20063;51.730;11.110;2024-01-30T04:33:05;7.10;99.90
33739;DHT22;20063;51.730;11.110;2024-01-30T04:35:30;7.10;99.90
33739;DHT22;20063;51.730;11.110;2024-01-30T04:37:56;7.00;99.90
33739;DHT22;20063;51.730;11.110;2024-01-30T04:40:21;7.00;99.90
33739;DHT22;20063;51.730;11.110;2024-01-30T04:42:47;6.90;99.90
33739;DHT22;20063;51.730;11.110;2024-01-30T04:45:13;6.80;99.90
33739;DHT22;20063;51.730;11.110;2024-01-30T04:47:38;6.70;99.90
33739;DHT22;20063;51.730;11.110;2024-01-30T04:50:06;6.60;99.90
33739;DHT22;20063;51.730;11.110;2024-01-30T04:52:32;6.50;99.90
33739;DHT22;20063;51.730;11.110;2024-01-30T04:54:58;6.50;99.90
33739;DHT22;20063;51.730;11.110;2024-01-30T04:57:23;6.50;99.90
33739;DHT22;20063;51.730;11.110;2024-01-30T04:59:52;6.50;99.90
33739;DHT22;20063;51.730;11.110;2024-01-30T05:02:18;6.50;99.90
33739;DHT22;20063;51.730;11.110;2024-01-30T05:04:43;6.40;99.90
33739;DHT22;20063;51.730;11.110;2024-01-30T05:07:09;6.40;99.90
33739;DHT22;20063;51.730;11.110;2024-01-30T05:09:35;6.40;99.90
33739;DHT22;20063;51.730;11.110;2024-01-30T05:12:00;6.40;99.90
33739;DHT22;20063;51.730;11.110;2024-01-30T05:14:26;6.30;99.90
33739;DHT22;20063;51.730;11.110;2024-01-30T05:16:51;6.40;99.90
33739;DHT22;20063;51.730;11.110;2024-01-30T05:19:17;6.40;99.90
33739;DHT22;20063;51.730;11.110;2024-01-30T05:21:43;6.40;99.90
33739;DHT22;20063;51.730;11.110;2024-01-30T05:24:08;6.40;99.90
33739;DHT22;20063;51.730;11.110;2024-01-30T05:26:38;6.40;99.90
33739;DHT22;20063;51.730;11.110;2024-01-30T05:29:06;6.40;99.90
33739;DHT22;20063;51.730;11.110;2024-01-30T05:31:32;6.40;99.90
33739;DHT22;20063;51.730;11.110;2024-01-30T05:33:58;6.40;99.90
33739;DHT22;20063;51.730;11.110;2024-01-30T05:36:23;6.40;99.90
33739;DHT22;20063;51.730;11.110;2024-01-30T05:38:49;6.40;99.90
33739;DHT22;20063;51.730;11.110;2024-01-30T05:41:14;6.40;99.90
33739;DHT22;20063;51.730;11.110;2024-01-30T05:43:41;6.30;99.90
33739;DHT22;20063;51.730;11.110;2024-01-30T05:46:07;6.30;99.90
33739;DHT22;20063;51.730;11.110;2024-01-30T05:48:33;6.20;99.90
33739;DHT22;20063;51.730;11.110;2024-01-30T05:51:02;6.10;99.90
33739;DHT22;20063;51.730;11.110;2024-01-30T05:53:29;6.10;99.90
33739;DHT22;20063;51.730;11.110;2024-01-30T05:55:54;6.00;99.90
33739;DHT22;20063;51.730;11.110;2024-01-30T05:58:20;6.00;99.90
33739;DHT22;20063;51.730;11.110;2024-01-30T06:00:46;5.90;99.90
33739;DHT22;20063;51.730;11.110;2024-01-30T06:03:12;5.80;99.90
33739;DHT22;20063;51.730;11.110;2024-01-30T06:05:38;5.80;99.90
33739;DHT22;20063;51.730;11.110;2024-01-30T06:08:03;5.80;99.90
33739;DHT22;20063;51.730;11.110;2024-01-30T06:10:29;5.90;99.90
33739;DHT22;20063;51.730;11.110;2024-01-30T06:12:55;5.90;99.90
33739;DHT22;20063;51.730;11.110;2024-01-30T06:15:20;5.90;99.90
33739;DHT22;20063;51.730;11.110;2024-01-30T06:17:46;6.00;99.90
33739;DHT22;20063;51.730;11.110;2024-01-30T06:20:11;6.00;99.90
33739;DHT22;20063;51.730;11.110;2024-01-30T06:22:37;6.00;99.90
33739;DHT22;20063;51.730;11.110;2024-01-30T06:25:03;6.10;99.90
33739;DHT22;20063;51.730;11.110;2024-01-30T06:27:28;6.00;99.90
33739;DHT22;20063;51.730;11.110;2024-01-30T06:29:55;6.10;99.90
33739;DHT22;20063;51.730;11.110;2024-01-30T06:32:20;6.10;99.90
33739;DHT22;20063;51.730;11.110;2024-01-30T06:34:46;6.10;99.90
33739;DHT22;20063;51.730;11.110;2024-01-30T06:37:11;6.00;99.90
33739;DHT22;20063;51.730;11.110;2024-01-30T06:39:37;6.00;99.90
33739;DHT22;20063;51.730;11.110;2024-01-30T06:42:03;5.90;99.90
33739;DHT22;20063;51.730;11.110;2024-01-30T06:44:28;5.90;99.90
33739;DHT22;20063;51.730;11.110;2024-01-30T06:46:54;6.00;99.90
33739;DHT22;20063;51.730;11.110;2024-01-30T06:49:19;6.00;99.90
33739;DHT22;20063;51.730;11.110;2024-01-30T06:51:47;5.90;99.90
33739;DHT22;20063;51.730;11.110;2024-01-30T06:54:13;5.90;99.90
33739;DHT22;20063;51.730;11.110;2024-01-30T06:56:38;6.00;99.90
33739;DHT22;20063;51.730;11.110;2024-01-30T06:59:04;6.00;99.90
33739;DHT22;20063;51.730;11.110;2024-01-30T07:01:30;6.00;99.90
33739;DHT22;20063;51.730;11.110;2024-01-30T07:03:56;5.90;99.90
33739;DHT22;20063;51.730;11.110;2024-01-30T07:06:22;6.00;99.90
33739;DHT22;20063;51.730;11.110;2024-01-30T07:08:49;6.00;99.90
33739;DHT22;20063;51.730;11.110;2024-01-30T07:11:22;6.00;99.90
33739;DHT22;20063;51.730;11.110;2024-01-30T07:13:51;6.00;99.90
33739;DHT22;20063;51.730;11.110;2024-01-30T07:16:16;6.10;99.90
33739;DHT22;20063;51.730;11.110;2024-01-30T07:18:43;6.10;99.90
33739;DHT22;20063;51.730;11.110;2024-01-30T07:21:09;6.20;99.90
33739;DHT22;20063;51.730;11.110;2024-01-30T07:23:34;6.20;99.90
33739;DHT22;20063;51.730;11.110;2024-01-30T07:26:03;6.30;99.90
33739;DHT22;20063;51.730;11.110;2024-01-30T07:28:29;6.30;99.90
33739;DHT22;20063;51.730;11.110;2024-01-30T07:30:54;6.30;99.90
33739;DHT22;20063;51.730;11.110;2024-01-30T07:33:20;6.30;99.90
33739;DHT22;20063;51.730;11.110;2024-01-30T07:35:46;6.40;99.90
33739;DHT22;20063;51.730;11.110;2024-01-30T07:38:12;6.40;99.90
33739;DHT22;20063;51.730;11.110;2024-01-30T07:40:37;6.40;99.90
33739;DHT22;20063;51.730;11.110;2024-01-30T07:43:03;6.40;99.90
33739;DHT22;20063;51.730;11.110;2024-01-30T07:45:29;6.40;99.90
33739;DHT22;20063;51.730;11.110;2024-01-30T07:47:58;6.50;99.90
33739;DHT22;20063;51.730;11.110;2024-01-30T07:50:25;6.40;99.90
33739;DHT22;20063;51.730;11.110;2024-01-30T07:52:51;6.40;99.90
33739;DHT22;20063;51.730;11.110;2024-01-30T07:55:20;6.40;99.90
33739;DHT22;20063;51.730;11.110;2024-01-30T07:57:47;6.50;99.90
33739;DHT22;20063;51.730;11.110;2024-01-30T08:00:13;6.60;99.90
33739;DHT22;20063;51.730;11.110;2024-01-30T08:02:39;6.60;99.90
33739;DHT22;20063;51.730;11.110;2024-01-30T08:05:05;6.60;99.90
33739;DHT22;20063;51.730;11.110;2024-01-30T08:07:30;6.70;99.90
33739;DHT22;20063;51.730;11.110;2024-01-30T08:09:56;6.80;99.90
33739;DHT22;20063;51.730;11.110;2024-01-30T08:12:22;6.80;99.90
33739;DHT22;20063;51.730;11.110;2024-01-30T08:14:47;6.90;99.90
33739;DHT22;20063;51.730;11.110;2024-01-30T08:17:13;6.90;99.90
33739;DHT22;20063;51.730;11.110;2024-01-30T08:19:38;7.00;99.90
33739;DHT22;20063;51.730;11.110;2024-01-30T08:22:04;7.00;99.90
33739;DHT22;20063;51.730;11.110;2024-01-30T08:24:29;7.10;99.90
33739;DHT22;20063;51.730;11.110;2024-01-30T08:26:55;7.20;99.90
33739;DHT22;20063;51.730;11.110;2024-01-30T08:29:20;7.20;99.90
33739;DHT22;20063;51.730;11.110;2024-01-30T08:31:46;7.30;99.90
33739;DHT22;20063;51.730;11.110;2024-01-30T08:34:12;7.30;99.90
33739;DHT22;20063;51.730;11.110;2024-01-30T08:36:37;7.40;99.90
33739;DHT22;20063;51.730;11.110;2024-01-30T08:39:03;7.40;99.90
33739;DHT22;20063;51.730;11.110;2024-01-30T08:41:28;7.50;99.90
33739;DHT22;20063;51.730;11.110;2024-01-30T08:43:54;7.60;99.90
33739;DHT22;20063;51.730;11.110;2024-01-30T08:46:19;7.60;99.90
33739;DHT22;20063;51.730;11.110;2024-01-30T08:48:47;7.70;99.90
33739;DHT22;20063;51.730;11.110;2024-01-30T08:51:13;7.90;99.90
33739;DHT22;20063;51.730;11.110;2024-01-30T08:53:39;8.00;99.90
33739;DHT22;20063;51.730;11.110;2024-01-30T08:56:06;8.10;99.90
33739;DHT22;20063;51.730;11.110;2024-01-30T08:58:33;8.20;99.90
33739;DHT22;20063;51.730;11.110;2024-01-30T09:00:59;8.30;99.90
33739;DHT22;20063;51.730;11.110;2024-01-30T09:03:24;8.40;99.90
33739;DHT22;20063;51.730;11.110;2024-01-30T09:05:50;8.50;99.90
33739;DHT22;20063;51.730;11.110;2024-01-30T09:08:15;8.50;99.90
33739;DHT22;20063;51.730;11.110;2024-01-30T09:10:42;8.60;99.90
33739;DHT22;20063;51.730;11.110;2024-01-30T09:13:09;8.70;99.90
33739;DHT22;20063;51.730;11.110;2024-01-30T09:15:38;8.70;99.90
33739;DHT22;20063;51.730;11.110;2024-01-30T09:18:04;8.80;99.90
33739;DHT22;20063;51.730;11.110;2024-01-30T09:20:29;8.90;99.90
33739;DHT22;20063;51.730;11.110;2024-01-30T09:22:55;9.10;99.90
33739;DHT22;20063;51.730;11.110;2024-01-30T09:25:21;9.30;99.90
33739;DHT22;20063;51.730;11.110;2024-01-30T09:27:47;9.50;99.90
33739;DHT22;20063;51.730;11.110;2024-01-30T09:30:12;9.50;99.90
33739;DHT22;20063;51.730;11.110;2024-01-30T09:32:41;9.70;99.90
33739;DHT22;20063;51.730;11.110;2024-01-30T09:35:07;9.70;99.90
33739;DHT22;20063;51.730;11.110;2024-01-30T09:37:32;9.90;99.90
33739;DHT22;20063;51.730;11.110;2024-01-30T09:39:58;9.90;99.90
33739;DHT22;20063;51.730;11.110;2024-01-30T09:42:35;9.90;99.90
33739;DHT22;20063;51.730;11.110;2024-01-30T09:45:02;10.00;99.90
33739;DHT22;20063;51.730;11.110;2024-01-30T09:47:36;10.00;99.90
33739;DHT22;20063;51.730;11.110;2024-01-30T09:50:03;10.00;99.90
33739;DHT22;20063;51.730;11.110;2024-01-30T09:52:31;10.10;99.90
33739;DHT22;20063;51.730;11.110;2024-01-30T09:54:59;10.10;99.90
33739;DHT22;20063;51.730;11.110;2024-01-30T09:57:25;10.20;99.90
33739;DHT22;20063;51.730;11.110;2024-01-30T09:59:51;10.20;99.90
33739;DHT22;20063;51.730;11.110;2024-01-30T10:02:19;10.20;99.90
33739;DHT22;20063;51.730;11.110;2024-01-30T10:04:48;10.30;99.90
33739;DHT22;20063;51.730;11.110;2024-01-30T10:07:14;10.40;99.90
33739;DHT22;20063;51.730;11.110;2024-01-30T10:09:40;10.40;99.90
33739;DHT22;20063;51.730;11.110;2024-01-30T10:12:06;10.40;99.90
33739;DHT22;20063;51.730;11.110;2024-01-30T10:14:33;10.50;99.90
33739;DHT22;20063;51.730;11.110;2024-01-30T10:16:58;10.40;99.90
33739;DHT22;20063;51.730;11.110;2024-01-30T10:19:24;10.50;99.90
33739;DHT22;20063;51.730;11.110;2024-01-30T10:21:52;10.40;99.90
33739;DHT22;20063;51.730;11.110;2024-01-30T10:24:17;10.40;99.90
33739;DHT22;20063;51.730;11.110;2024-01-30T10:26:44;10.30;99.90
33739;DHT22;20063;51.730;11.110;2024-01-30T10:29:09;10.20;99.90
33739;DHT22;20063;51.730;11.110;2024-01-30T10:31:35;10.20;99.90
33739;DHT22;20063;51.730;11.110;2024-01-30T10:34:01;10.20;99.90
33739;DHT22;20063;51.730;11.110;2024-01-30T10:36:28;10.10;99.90
33739;DHT22;20063;51.730;11.110;2024-01-30T10:38:56;10.10;99.90
33739;DHT22;20063;51.730;11.110;2024-01-30T10:41:26;10.10;99.90
33739;DHT22;20063;51.730;11.110;2024-01-30T10:44:11;10.20;99.90
33739;DHT22;20063;51.730;11.110;2024-01-30T10:46:38;10.20;99.90
33739;DHT22;20063;51.730;11.110;2024-01-30T10:49:05;10.20;99.90
33739;DHT22;20063;51.730;11.110;2024-01-30T10:51:35;10.30;99.90
33739;DHT22;20063;51.730;11.110;2024-01-30T10:54:03;10.30;99.90
33739;DHT22;20063;51.730;11.110;2024-01-30T10:56:32;10.30;99.90
33739;DHT22;20063;51.730;11.110;2024-01-30T10:58:59;10.30;99.90
33739;DHT22;20063;51.730;11.110;2024-01-30T11:01:25;10.40;99.90
33739;DHT22;20063;51.730;11.110;2024-01-30T11:03:52;10.40;99.90
33739;DHT22;20063;51.730;11.110;2024-01-30T11:06:22;10.50;99.90
33739;DHT22;20063;51.730;11.110;2024-01-30T11:09:01;10.50;99.90
33739;DHT22;20063;51.730;11.110;2024-01-30T11:11:51;10.60;99.90
33739;DHT22;20063;51.730;11.110;2024-01-30T11:14:23;10.60;99.90
33739;DHT22;20063;51.730;11.110;2024-01-30T11:16:50;10.50;99.90
33739;DHT22;20063;51.730;11.110;2024-01-30T11:19:15;10.60;99.90
33739;DHT22;20063;51.730;11.110;2024-01-30T11:21:50;10.60;99.90
33739;DHT22;20063;51.730;11.110;2024-01-30T11:24:20;10.60;99.90
33739;DHT22;20063;51.730;11.110;2024-01-30T11:26:57;10.70;99.90
33739;DHT22;20063;51.730;11.110;2024-01-30T11:29:29;10.70;99.90
33739;DHT22;20063;51.730;11.110;2024-01-30T11:31:56;10.80;99.90
33739;DHT22;20063;51.730;11.110;2024-01-30T11:34:22;10.80;99.90
33739;DHT22;20063;51.730;11.110;2024-01-30T11:36:53;10.90;99.90
33739;DHT22;20063;51.730;11.110;2024-01-30T11:39:28;11.00;99.90
33739;DHT22;20063;51.730;11.110;2024-01-30T11:41:55;11.10;99.90
33739;DHT22;20063;51.730;11.110;2024-01-30T11:44:22;11.20;99.90
33739;DHT22;20063;51.730;11.110;2024-01-30T11:46:52;11.20;99.90
33739;DHT22;20063;51.730;11.110;2024-01-30T11:49:18;11.20;99.90
33739;DHT22;20063;51.730;11.110;2024-01-30T11:51:45;11.30;99.90
33739;DHT22;20063;51.730;11.110;2024-01-30T11:54:14;11.20;99.90
33739;DHT22;20063;51.730;11.110;2024-01-30T11:56:39;11.30;99.90
33739;DHT22;20063;51.730;11.110;2024-01-30T11:59:05;11.20;99.90
33739;DHT22;20063;51.730;11.110;2024-01-30T12:01:32;11.20;99.90
33739;DHT22;20063;51.730;11.110;2024-01-30T12:04:02;11.30;99.90
33739;DHT22;20063;51.730;11.110;2024-01-30T12:06:28;11.30;99.90
33739;DHT22;20063;51.730;11.110;2024-01-30T12:09:02;11.30;99.90
33739;DHT22;20063;51.730;11.110;2024-01-30T12:11:29;11.30;99.90
33739;DHT22;20063;51.730;11.110;2024-01-30T12:13:55;11.40;99.90
33739;DHT22;20063;51.730;11.110;2024-01-30T12:16:21;11.40;99.90
33739;DHT22;20063;51.730;11.110;2024-01-30T12:18:48;11.30;99.90
33739;DHT22;20063;51.730;11.110;2024-01-30T12:21:16;11.30;99.90
33739;DHT22;20063;51.730;11.110;2024-01-30T12:23:42;11.30;99.90
33739;DHT22;20063;51.730;11.110;2024-01-30T12:26:08;11.30;99.90
33739;DHT22;20063;51.730;11.110;2024-01-30T12:28:34;11.30;99.90
33739;DHT22;20063;51.730;11.110;2024-01-30T12:31:05;11.30;99.90
33739;DHT22;20063;51.730;11.110;2024-01-30T12:33:31;11.30;99.90
33739;DHT22;20063;51.730;11.110;2024-01-30T12:35:57;11.30;99.90
33739;DHT22;20063;51.730;11.110;2024-01-30T12:38:24;11.30;99.90
33739;DHT22;20063;51.730;11.110;2024-01-30T12:40:54;11.30;99.90
33739;DHT22;20063;51.730;11.110;2024-01-30T12:43:19;11.30;99.90
33739;DHT22;20063;51.730;11.110;2024-01-30T12:45:46;11.30;99.90
33739;DHT22;20063;51.730;11.110;2024-01-30T12:48:12;11.30;99.90
33739;DHT22;20063;51.730;11.110;2024-01-30T12:50:38;11.30;99.90
33739;DHT22;20063;51.730;11.110;2024-01-30T12:53:04;11.30;99.90
33739;DHT22;20063;51.730;11.110;2024-01-30T12:55:30;11.30;99.90
33739;DHT22;20063;51.730;11.110;2024-01-30T12:57:56;11.30;99.90
33739;DHT22;20063;51.730;11.110;2024-01-30T13:00:22;11.30;99.90
33739;DHT22;20063;51.730;11.110;2024-01-30T13:02:48;11.30;99.90
33739;DHT22;20063;51.730;11.110;2024-01-30T13:05:14;11.40;99.90
33739;DHT22;20063;51.730;11.110;2024-01-30T13:07:40;11.40;99.90
33739;DHT22;20063;51.730;11.110;2024-01-30T13:10:05;11.40;99.90
33739;DHT22;20063;51.730;11.110;2024-01-30T13:12:34;11.40;99.90
33739;DHT22;20063;51.730;11.110;2024-01-30T13:15:01;11.40;99.90
33739;DHT22;20063;51.730;11.110;2024-01-30T13:17:27;11.40;99.90
33739;DHT22;20063;51.730;11.110;2024-01-30T13:19:53;11.30;99.90
33739;DHT22;20063;51.730;11.110;2024-01-30T13:22:19;11.30;99.90
33739;DHT22;20063;51.730;11.110;2024-01-30T13:24:50;11.30;99.90
33739;DHT22;20063;51.730;11.110;2024-01-30T13:27:17;11.30;99.90
33739;DHT22;20063;51.730;11.110;2024-01-30T13:29:43;11.30;99.90
33739;DHT22;20063;51.730;11.110;2024-01-30T13:32:08;11.30;99.90
33739;DHT22;20063;51.730;11.110;2024-01-30T13:34:34;11.30;99.90
33739;DHT22;20063;51.730;11.110;2024-01-30T13:36:59;11.30;99.90
33739;DHT22;20063;51.730;11.110;2024-01-30T13:39:25;11.20;99.90
33739;DHT22;20063;51.730;11.110;2024-01-30T13:41:52;11.10;99.90
33739;DHT22;20063;51.730;11.110;2024-01-30T13:44:17;11.10;99.90
33739;DHT22;20063;51.730;11.110;2024-01-30T13:46:43;11.10;99.90
33739;DHT22;20063;51.730;11.110;2024-01-30T13:49:09;11.10;99.90
33739;DHT22;20063;51.730;11.110;2024-01-30T13:51:34;11.10;99.90
33739;DHT22;20063;51.730;11.110;2024-01-30T13:54:00;11.00;99.90
33739;DHT22;20063;51.730;11.110;2024-01-30T13:56:26;11.00;99.90
33739;DHT22;20063;51.730;11.110;2024-01-30T13:58:52;11.00;99.90
33739;DHT22;20063;51.730;11.110;2024-01-30T14:01:18;11.00;99.90
33739;DHT22;20063;51.730;11.110;2024-01-30T14:03:43;11.00;99.90
33739;DHT22;20063;51.730;11.110;2024-01-30T14:06:09;10.90;99.90
33739;DHT22;20063;51.730;11.110;2024-01-30T14:08:34;11.00;99.90
33739;DHT22;20063;51.730;11.110;2024-01-30T14:11:00;11.00;99.90
33739;DHT22;20063;51.730;11.110;2024-01-30T14:13:25;11.00;99.90
33739;DHT22;20063;51.730;11.110;2024-01-30T14:15:52;11.00;99.90
33739;DHT22;20063;51.730;11.110;2024-01-30T14:18:18;11.10;99.90
33739;DHT22;20063;51.730;11.110;2024-01-30T14:20:44;11.10;99.90
33739;DHT22;20063;51.730;11.110;2024-01-30T14:23:09;11.00;99.90
33739;DHT22;20063;51.730;11.110;2024-01-30T14:25:35;11.10;99.90
33739;DHT22;20063;51.730;11.110;2024-01-30T14:28:00;11.10;99.90
33739;DHT22;20063;51.730;11.110;2024-01-30T14:30:26;11.00;99.90
33739;DHT22;20063;51.730;11.110;2024-01-30T14:32:51;11.00;99.90
33739;DHT22;20063;51.730;11.110;2024-01-30T14:35:17;10.90;99.90
33739;DHT22;20063;51.730;11.110;2024-01-30T14:37:44;10.90;99.90
33739;DHT22;20063;51.730;11.110;2024-01-30T14:40:10;10.80;99.90
33739;DHT22;20063;51.730;11.110;2024-01-30T14:42:36;10.80;99.90
33739;DHT22;20063;51.730;11.110;2024-01-30T14:45:03;10.70;99.90
33739;DHT22;20063;51.730;11.110;2024-01-30T14:47:29;10.80;99.90
33739;DHT22;20063;51.730;11.110;2024-01-30T14:49:57;10.90;99.90
33739;DHT22;20063;51.730;11.110;2024-01-30T14:52:23;10.90;99.90
33739;DHT22;20063;51.730;11.110;2024-01-30T14:54:49;10.90;99.90
33739;DHT22;20063;51.730;11.110;2024-01-30T14:57:14;10.80;99.90
33739;DHT22;20063;51.730;11.110;2024-01-30T14:59:40;10.80;99.90
33739;DHT22;20063;51.730;11.110;2024-01-30T15:02:06;10.70;99.90
33739;DHT22;20063;51.730;11.110;2024-01-30T15:04:31;10.70;99.90
33739;DHT22;20063;51.730;11.110;2024-01-30T15:06:57;10.70;99.90
33739;DHT22;20063;51.730;11.110;2024-01-30T15:09:23;10.80;99.90
33739;DHT22;20063;51.730;11.110;2024-01-30T15:11:49;10.70;99.90
33739;DHT22;20063;51.730;11.110;2024-01-30T15:14:15;10.60;99.90
33739;DHT22;20063;51.730;11.110;2024-01-30T15:16:41;10.60;99.90
33739;DHT22;20063;51.730;11.110;2024-01-30T15:19:09;10.50;99.90
33739;DHT22;20063;51.730;11.110;2024-01-30T15:21:35;10.50;99.90
33739;DHT22;20063;51.730;11.110;2024-01-30T15:24:02;10.50;99.90